Time;durP1;ratioP1;P1;durP2;ratioP2;P2;SDS_P1;SDS_P2;PMS_P1;PMS_P2;Temp;Humidity;BMP_temperature;BMP_pressure;BME280_temperature;BME280_humidity;BME280_pressure;Samples;Min_cycle;Max_cycle;Signal;HPM_P1;HPM_P2
2023/10/28 00:01:43;;;;;;;7.20;6.40;;;;;;;8.38;100.00;98319.04;131227;1293;25309;-81
2023/10/28 00:04:43;;;;;;;10.50;6.60;;;;;;;8.37;100.00;98325.00;131252;1293;22573;-82
2023/10/28 00:07:44;;;;;;;8.50;6.50;;;;;;;8.36;100.00;98330.53;131472;1297;24585;-80
2023/10/28 00:10:48;;;;;;;10.40;6.50;;;;;;;8.36;100.00;98332.81;131321;1294;24267;-82
2023/10/28 00:13:50;;;;;;;9.70;6.70;;;;;;;8.37;100.00;98339.23;131384;1294;22560;-81
2023/10/28 00:16:50;;;;;;;10.60;7.10;;;;;;;8.39;100.00;98336.59;131058;1298;23519;-82
2023/10/28 00:19:50;;;;;;;8.40;7.50;;;;;;;8.41;100.00;98342.10;131246;1298;22555;-82
2023/10/28 00:22:54;;;;;;;9.10;7.70;;;;;;;8.43;100.00;98340.35;131170;1300;22711;-81
2023/10/28 00:26:05;;;;;;;9.90;7.80;;;;;;;8.45;100.00;98345.30;131306;1294;22573;-82
2023/10/28 00:29:05;;;;;;;10.40;8.40;;;;;;;8.47;100.00;98346.63;131582;1297;22610;-82
2023/10/28 00:32:09;;;;;;;10.20;8.00;;;;;;;8.48;100.00;98345.05;130987;1297;22554;-80
2023/10/28 00:35:13;;;;;;;10.10;7.60;;;;;;;8.49;100.00;98341.23;131227;1299;24267;-80
2023/10/28 00:38:13;;;;;;;11.70;8.10;;;;;;;8.50;100.00;98340.91;131298;1291;24989;-82
2023/10/28 00:41:17;;;;;;;11.10;7.60;;;;;;;8.51;100.00;98343.23;131304;1298;22653;-82
2023/10/28 00:44:17;;;;;;;9.50;8.10;;;;;;;8.50;100.00;98354.96;132178;1297;23265;-82
2023/10/28 00:47:18;;;;;;;12.70;9.10;;;;;;;8.51;100.00;98358.45;131434;1297;22589;-82
2023/10/28 00:50:19;;;;;;;11.00;7.60;;;;;;;8.52;100.00;98353.16;131011;1298;25316;-82
2023/10/28 00:53:24;;;;;;;9.70;8.40;;;;;;;8.51;100.00;98358.33;131227;1298;22548;-80
2023/10/28 00:56:25;;;;;;;13.70;8.20;;;;;;;8.51;100.00;98358.95;131904;1297;22682;-81
2023/10/28 00:59:27;;;;;;;;;;;;;;;8.52;100.00;98367.48;131679;1297;22574;-82
2023/10/28 01:02:27;;;;;;;12.10;8.60;;;;;;;8.50;100.00;98367.11;131623;1296;22604;-81
2023/10/28 01:05:30;;;;;;;10.50;8.50;;;;;;;8.51;100.00;98368.95;131434;1291;22752;-82
2023/10/28 01:08:31;;;;;;;11.60;8.60;;;;;;;8.53;100.00;98365.38;131668;1289;24266;-81
2023/10/28 01:11:39;;;;;;;12.10;8.90;;;;;;;8.55;100.00;98374.48;131427;1297;25449;-81
2023/10/28 01:14:40;;;;;;;11.40;8.60;;;;;;;8.56;100.00;98381.05;131411;1294;22566;-81
2023/10/28 01:17:42;;;;;;;13.60;8.80;;;;;;;8.57;100.00;98381.50;131224;1296;22602;-82
2023/10/28 01:20:43;;;;;;;13.00;8.20;;;;;;;8.57;100.00;98387.27;131344;1297;24226;-80
2023/10/28 01:23:45;;;;;;;10.60;7.80;;;;;;;8.58;100.00;98388.24;131621;1297;22567;-82
2023/10/28 01:26:45;;;;;;;11.40;8.30;;;;;;;8.57;100.00;98391.23;131673;1294;22622;-80
2023/10/28 01:29:46;;;;;;;8.00;7.20;;;;;;;8.56;100.00;98380.69;131644;1296;25590;-80
2023/10/28 01:32:47;;;;;;;9.10;7.70;;;;;;;8.56;100.00;98382.53;131391;1294;23242;-82
2023/10/28 01:35:47;;;;;;;9.60;7.30;;;;;;;8.55;100.00;98382.79;131698;1283;23381;-81
2023/10/28 01:38:48;;;;;;;9.80;7.80;;;;;;;8.53;100.00;98381.36;131502;1288;24362;-82
2023/10/28 01:41:49;;;;;;;8.00;6.80;;;;;;;8.51;100.00;98386.75;131542;1297;25310;-81
2023/10/28 01:44:50;;;;;;;8.90;6.80;;;;;;;8.48;100.00;98392.27;131293;1288;22571;-81
2023/10/28 01:47:52;;;;;;;8.30;7.20;;;;;;;8.46;100.00;98398.39;131529;1288;22723;-82
2023/10/28 01:50:52;;;;;;;9.60;7.70;;;;;;;8.42;100.00;98409.44;131558;1294;25357;-80
2023/10/28 01:53:54;;;;;;;12.10;8.70;;;;;;;8.40;100.00;98416.49;131549;1295;23808;-80
2023/10/28 01:56:54;;;;;;;10.20;7.80;;;;;;;8.39;100.00;98420.56;131374;1288;25422;-80
2023/10/28 01:59:55;;;;;;;11.40;8.50;;;;;;;8.39;100.00;98420.42;131424;1291;22655;-82
2023/10/28 02:02:57;;;;;;;16.60;9.10;;;;;;;8.36;100.00;98417.33;131127;1293;22576;-83
2023/10/28 02:05:58;;;;;;;11.80;8.40;;;;;;;8.35;100.00;98415.46;132008;1291;27681;-81
2023/10/28 02:08:58;;;;;;;;;;;;;;;8.34;100.00;98419.11;131155;1297;22551;-81
2023/10/28 02:12:02;;;;;;;11.40;8.30;;;;;;;8.32;100.00;98420.60;131325;1288;22591;-82
2023/10/28 02:15:03;;;;;;;10.60;8.70;;;;;;;8.31;100.00;98427.55;131183;1297;23069;-84
2023/10/28 02:18:04;;;;;;;12.10;8.60;;;;;;;8.31;100.00;98427.73;131409;1294;25333;-79
2023/10/28 02:21:05;;;;;;;10.80;8.90;;;;;;;8.31;100.00;98428.90;131221;1297;25316;-83
2023/10/28 02:24:05;;;;;;;11.00;9.00;;;;;;;8.32;100.00;98425.53;131016;1294;24391;-82
2023/10/28 02:27:06;;;;;;;15.90;10.40;;;;;;;8.31;100.00;98422.80;131092;1293;23110;-81
2023/10/28 02:30:09;;;;;;;13.20;9.30;;;;;;;8.28;100.00;98422.21;131457;1297;25367;-81
2023/10/28 02:33:10;;;;;;;13.60;9.90;;;;;;;8.27;100.00;98425.56;131508;1297;22552;-81
2023/10/28 02:36:11;;;;;;;14.20;9.90;;;;;;;8.25;100.00;98428.28;131312;1292;22887;-81
2023/10/28 02:39:11;;;;;;;11.40;9.60;;;;;;;8.25;100.00;98428.84;131352;1288;23897;-83
2023/10/28 02:42:12;;;;;;;14.60;10.30;;;;;;;8.24;100.00;98436.80;131424;1297;22590;-80
2023/10/28 02:45:14;;;;;;;13.50;10.20;;;;;;;8.25;100.00;98436.93;131399;1288;24813;-80
2023/10/28 02:48:14;;;;;;;13.90;10.40;;;;;;;8.25;100.00;98440.58;131347;1294;22584;-80
2023/10/28 02:51:16;;;;;;;14.40;11.40;;;;;;;8.25;100.00;98436.23;131456;1297;22608;-81
2023/10/28 02:54:16;;;;;;;15.50;11.60;;;;;;;8.22;100.00;98436.07;131290;1298;24298;-81
2023/10/28 02:57:17;;;;;;;16.10;11.80;;;;;;;8.20;100.00;98431.52;131295;1298;22576;-80
2023/10/28 03:00:18;;;;;;;13.50;11.30;;;;;;;8.20;100.00;98433.38;131487;1288;25424;-82
2023/10/28 03:03:18;;;;;;;14.60;11.50;;;;;;;8.19;100.00;98436.80;131469;1288;22563;-81
2023/10/28 03:06:19;;;;;;;14.70;12.10;;;;;;;8.21;100.00;98436.17;131439;1297;22568;-83
2023/10/28 03:09:20;;;;;;;19.80;13.20;;;;;;;8.22;100.00;98438.02;131474;1296;23288;-80
2023/10/28 03:12:20;;;;;;;20.60;13.10;;;;;;;8.22;100.00;98443.92;131268;1298;22663;-81
2023/10/28 03:15:21;;;;;;;;;;;;;;;8.25;100.00;98445.23;131380;1288;23028;-81
2023/10/28 03:18:25;;;;;;;15.90;13.30;;;;;;;8.25;100.00;98450.52;131503;1294;23297;-82
2023/10/28 03:21:25;;;;;;;16.90;14.30;;;;;;;8.26;100.00;98448.69;131379;1297;22560;-84
2023/10/28 03:24:26;;;;;;;20.30;15.00;;;;;;;8.25;100.00;98445.52;131590;1288;23346;-82
2023/10/28 03:27:26;;;;;;;20.10;15.20;;;;;;;8.24;100.00;98443.97;131618;1291;22563;-81
2023/10/28 03:30:28;;;;;;;25.10;15.00;;;;;;;8.24;100.00;98447.38;131555;1297;22584;-80
2023/10/28 03:33:28;;;;;;;21.80;14.80;;;;;;;8.26;100.00;98447.67;131636;1297;25338;-79
2023/10/28 03:36:29;;;;;;;;;;;;;;;8.30;100.00;98450.77;131634;1297;23477;-82
2023/10/28 03:39:29;;;;;;;19.60;14.60;;;;;;;8.32;100.00;98450.80;131691;1296;24232;-79
2023/10/28 03:42:30;;;;;;;19.40;15.50;;;;;;;8.35;100.00;98449.48;131275;1294;22630;-81
2023/10/28 03:45:31;;;;;;;;;;;;;;;8.37;100.00;98451.50;131362;1297;24565;-81
2023/10/28 03:48:32;;;;;;;20.40;15.30;;;;;;;8.37;100.00;98444.79;131372;1295;22565;-82
2023/10/28 03:51:34;;;;;;;22.50;16.00;;;;;;;8.38;100.00;98445.23;131235;1297;22602;-80
2023/10/28 03:54:34;;;;;;;22.20;15.90;;;;;;;8.38;100.00;98450.10;131131;1294;23099;-82
2023/10/28 03:57:35;;;;;;;19.60;15.70;;;;;;;8.39;100.00;98450.37;131367;1297;22559;-82
2023/10/28 04:00:36;;;;;;;20.20;15.80;;;;;;;8.39;100.00;98452.51;131262;1289;22581;-80
2023/10/28 04:03:36;;;;;;;25.60;17.00;;;;;;;8.38;100.00;98451.30;131474;1289;22575;-81
2023/10/28 04:06:37;;;;;;;23.20;16.40;;;;;;;8.38;100.00;98455.00;131447;1294;23549;-82
2023/10/28 04:09:37;;;;;;;22.60;14.90;;;;;;;8.37;100.00;98456.05;131517;1296;22581;-82
2023/10/28 04:12:38;;;;;;;22.20;16.40;;;;;;;8.37;100.00;98458.50;131472;1297;22572;-81
2023/10/28 04:15:39;;;;;;;19.20;14.60;;;;;;;8.38;100.00;98453.66;131475;1297;25555;-82
2023/10/28 04:18:40;;;;;;;19.30;14.70;;;;;;;8.39;100.00;98455.25;131512;1288;24473;-82
2023/10/28 04:21:40;;;;;;;19.50;15.10;;;;;;;8.41;100.00;98457.48;131607;1297;22727;-81
2023/10/28 04:24:41;;;;;;;19.00;13.80;;;;;;;8.43;100.00;98462.50;131289;1298;25431;-81
2023/10/28 04:27:42;;;;;;;19.10;13.80;;;;;;;8.44;100.00;98459.25;131278;1289;22592;-82
2023/10/28 04:30:42;;;;;;;19.20;14.30;;;;;;;8.44;100.00;98460.04;131400;1289;25404;-81
2023/10/28 04:33:43;;;;;;;;;;;;;;;8.45;100.00;98465.97;131460;1294;22599;-82
2023/10/28 04:36:44;;;;;;;15.70;12.00;;;;;;;8.46;100.00;98466.55;131434;1288;22567;-81
2023/10/28 04:39:44;;;;;;;18.30;11.80;;;;;;;8.46;100.00;98460.90;131312;1287;23937;-81
2023/10/28 04:42:47;;;;;;;16.60;12.00;;;;;;;8.44;100.00;98460.07;131518;1297;22567;-81
2023/10/28 04:45:49;;;;;;;14.20;10.70;;;;;;;8.44;100.00;98458.13;131504;1297;22645;-80
2023/10/28 04:48:50;;;;;;;14.10;10.70;;;;;;;8.44;100.00;98462.58;131257;1297;23023;-82
2023/10/28 04:51:51;;;;;;;13.00;9.40;;;;;;;8.45;100.00;98464.02;131469;1291;22640;-80
2023/10/28 04:54:51;;;;;;;16.80;9.60;;;;;;;8.46;100.00;98463.91;131465;1297;22601;-80
2023/10/28 04:57:52;;;;;;;14.70;10.30;;;;;;;8.47;100.00;98464.08;131261;1297;25512;-81
2023/10/28 05:00:52;;;;;;;13.50;9.30;;;;;;;8.49;100.00;98463.40;131511;1291;27513;-79
2023/10/28 05:03:53;;;;;;;19.20;9.30;;;;;;;8.49;100.00;98466.46;131523;1297;23435;-81
2023/10/28 05:06:54;;;;;;;10.90;9.40;;;;;;;8.51;100.00;98467.69;131304;1297;22598;-81
2023/10/28 05:09:55;;;;;;;14.60;9.30;;;;;;;8.53;100.00;98475.02;131731;1294;22563;-82
2023/10/28 05:12:55;;;;;;;14.20;8.40;;;;;;;8.55;100.00;98474.98;131427;1292;25450;-81
2023/10/28 05:15:56;;;;;;;14.30;9.60;;;;;;;8.56;100.00;98473.84;131319;1298;22608;-83
2023/10/28 05:18:57;;;;;;;13.70;8.60;;;;;;;8.56;100.00;98479.39;131370;1289;22689;-80
2023/10/28 05:22:01;;;;;;;11.40;8.10;;;;;;;8.57;100.00;98481.60;131600;1296;26261;-82
2023/10/28 05:25:04;;;;;;;12.30;9.30;;;;;;;8.58;100.00;98482.73;131616;1288;22669;-81
2023/10/28 05:28:04;;;;;;;10.20;8.30;;;;;;;8.59;100.00;98484.09;131744;1298;22634;-80
2023/10/28 05:31:06;;;;;;;13.60;9.00;;;;;;;8.62;100.00;98489.27;131377;1291;22551;-80
2023/10/28 05:34:06;;;;;;;10.80;8.70;;;;;;;8.63;100.00;98498.46;131366;1297;23947;-80
2023/10/28 05:37:07;;;;;;;10.80;8.20;;;;;;;8.63;100.00;98495.02;131267;1288;22568;-81
2023/10/28 05:40:13;;;;;;;14.70;9.00;;;;;;;8.64;100.00;98492.81;131158;1294;25342;-80
2023/10/28 05:43:13;;;;;;;10.50;8.80;;;;;;;8.64;100.00;98497.29;131306;1298;154165;-80
2023/10/28 05:46:14;;;;;;;12.70;8.70;;;;;;;8.63;100.00;98500.88;131377;1295;24389;-81
2023/10/28 05:49:14;;;;;;;;;;;;;;;8.63;100.00;98501.48;131309;1285;26561;-81
2023/10/28 05:52:18;;;;;;;13.10;8.90;;;;;;;8.62;100.00;98508.76;131454;1298;22549;-80
2023/10/28 05:55:18;;;;;;;11.10;8.80;;;;;;;8.61;100.00;98511.39;131399;1288;22665;-80
2023/10/28 05:58:20;;;;;;;12.80;9.50;;;;;;;8.62;100.00;98513.20;131366;1294;23279;-79
2023/10/28 06:01:20;;;;;;;13.80;8.60;;;;;;;8.63;100.00;98517.14;131519;1297;22590;-80
2023/10/28 06:04:22;;;;;;;11.00;8.50;;;;;;;8.65;100.00;98522.80;131624;1288;25401;-80
2023/10/28 06:07:22;;;;;;;10.50;8.10;;;;;;;8.68;100.00;98523.52;131832;1297;22659;-81
2023/10/28 06:10:24;;;;;;;11.90;9.30;;;;;;;8.70;100.00;98527.44;131369;1288;24285;-80
2023/10/28 06:13:25;;;;;;;12.30;8.50;;;;;;;8.74;100.00;98530.56;131440;1297;22995;-79
2023/10/28 06:16:26;;;;;;;14.40;11.50;;;;;;;8.77;100.00;98535.09;131452;1291;22616;-80
2023/10/28 06:19:26;;;;;;;14.50;12.70;;;;;;;8.79;100.00;98537.99;131522;1297;22591;-80
2023/10/28 06:22:27;;;;;;;19.00;13.20;;;;;;;8.82;100.00;98541.35;131561;1288;25191;-80
2023/10/28 06:25:27;;;;;;;10.50;9.20;;;;;;;8.84;100.00;98540.06;131527;1288;22584;-80
2023/10/28 06:28:28;;;;;;;9.70;7.20;;;;;;;8.87;100.00;98538.36;131535;1288;23706;-80
2023/10/28 06:31:28;;;;;;;8.20;6.90;;;;;;;8.91;100.00;98539.98;131531;1291;25377;-80
2023/10/28 06:34:29;;;;;;;9.90;7.10;;;;;;;8.94;100.00;98542.44;132138;1288;22604;-79
2023/10/28 06:37:31;;;;;;;9.00;6.60;;;;;;;8.96;100.00;98547.46;131689;1288;23579;-80
2023/10/28 06:40:32;;;;;;;9.30;7.30;;;;;;;8.99;100.00;98557.85;131489;1281;22934;-80
2023/10/28 06:43:33;;;;;;;7.80;5.90;;;;;;;9.02;100.00;98559.42;131684;1288;25370;-80
2023/10/28 06:46:33;;;;;;;7.50;6.40;;;;;;;9.05;100.00;98564.92;131711;1289;22585;-80
2023/10/28 06:49:34;;;;;;;10.30;6.90;;;;;;;9.11;100.00;98568.96;131685;1288;25412;-79
2023/10/28 06:52:36;;;;;;;8.70;5.90;;;;;;;9.16;100.00;98576.46;131763;1296;22767;-78
2023/10/28 06:55:37;;;;;;;7.50;6.10;;;;;;;9.48;100.00;98576.39;131633;1291;22572;-78
2023/10/28 06:58:37;;;;;;;8.40;5.70;;;;;;;9.92;100.00;98578.91;130720;1292;22736;-79
2023/10/28 07:01:39;;;;;;;7.40;5.20;;;;;;;10.30;100.00;98584.25;131843;1294;22599;-80
2023/10/28 07:04:40;;;;;;;6.50;4.90;;;;;;;10.47;100.00;98586.60;131492;1291;22559;-79
2023/10/28 07:07:41;;;;;;;;;;;;;;;10.41;100.00;98591.58;131628;1294;24150;-79
2023/10/28 07:10:41;;;;;;;6.00;4.70;;;;;;;10.36;100.00;98596.02;131756;1288;22673;-79
2023/10/28 07:13:42;;;;;;;4.50;4.10;;;;;;;10.42;100.00;98596.67;131734;1288;24124;-78
2023/10/28 07:16:42;;;;;;;8.10;5.20;;;;;;;10.51;100.00;98599.33;131712;1293;22803;-81
2023/10/28 07:19:43;;;;;;;7.30;4.50;;;;;;;10.56;100.00;98599.51;131645;1294;22704;-79
2023/10/28 07:22:43;;;;;;;6.10;4.50;;;;;;;10.59;100.00;98608.00;131963;1291;25463;-79
2023/10/28 07:25:44;;;;;;;5.80;4.00;;;;;;;10.55;100.00;98612.31;131720;1291;22549;-80
2023/10/28 07:28:45;;;;;;;6.20;4.30;;;;;;;10.57;100.00;98616.23;131606;1291;25444;-80
2023/10/28 07:31:45;;;;;;;6.10;4.60;;;;;;;10.64;100.00;98619.86;131540;1298;24297;-79
2023/10/28 07:34:48;;;;;;;6.70;4.50;;;;;;;10.71;100.00;98622.48;131581;1288;26599;-79
2023/10/28 07:37:48;;;;;;;5.60;4.80;;;;;;;10.78;100.00;98625.46;131393;1292;24250;-79
2023/10/28 07:40:49;;;;;;;5.40;4.70;;;;;;;10.94;100.00;98629.14;130688;1288;25368;-79
2023/10/28 07:43:50;;;;;;;6.70;4.00;;;;;;;11.11;100.00;98631.23;131464;1294;23733;-80
2023/10/28 07:46:50;;;;;;;4.90;4.20;;;;;;;11.21;100.00;98638.57;131497;1288;22809;-80
2023/10/28 07:49:52;;;;;;;8.10;4.10;;;;;;;11.53;100.00;98638.70;131523;1288;22686;-79
2023/10/28 07:52:53;;;;;;;8.10;3.60;;;;;;;11.99;100.00;98639.70;131637;1297;22553;-79
2023/10/28 07:55:53;;;;;;;9.50;3.80;;;;;;;12.47;100.00;98641.12;131751;1285;24240;-81
2023/10/28 07:58:58;;;;;;;3.60;3.20;;;;;;;12.93;100.00;98644.42;131487;1288;22501;-80
2023/10/28 08:02:00;;;;;;;5.50;3.30;;;;;;;13.30;100.00;98645.63;131350;1289;24946;-80
2023/10/28 08:05:00;;;;;;;5.90;3.20;;;;;;;13.68;100.00;98647.24;131470;1294;24565;-80
2023/10/28 08:08:01;;;;;;;4.40;2.80;;;;;;;14.05;100.00;98653.98;131471;1295;22588;-83
2023/10/28 08:11:05;;;;;;;;;;;;;;;14.38;99.92;98656.19;131335;1296;22571;-81
2023/10/28 08:14:06;;;;;;;4.30;2.50;;;;;;;14.65;98.62;98660.02;131235;1291;25245;-78
2023/10/28 08:17:08;;;;;;;;;;;;;;;14.92;98.08;98657.05;130582;1288;22560;-78
2023/10/28 08:20:09;;;;;;;3.50;2.60;;;;;;;15.14;97.24;98663.98;130788;1282;24265;-80
2023/10/28 08:23:09;;;;;;;;;;;;;;;14.97;94.94;98669.30;131614;1291;22550;-78
2023/10/28 08:26:11;;;;;;;3.10;2.50;;;;;;;14.65;93.62;98674.75;130545;1289;22638;-79
2023/10/28 08:29:12;;;;;;;7.00;3.10;;;;;;;14.37;93.63;98681.14;131579;1291;22556;-79
2023/10/28 08:32:13;;;;;;;3.70;2.20;;;;;;;14.27;94.04;98683.64;131573;1290;25445;-78
2023/10/28 08:35:13;;;;;;;6.30;2.70;;;;;;;14.22;93.21;98682.44;131369;1291;22664;-79
2023/10/28 08:38:17;;;;;;;;;;;;;;;14.20;93.36;98685.87;131397;1292;22582;-79
2023/10/28 08:41:22;;;;;;;4.90;2.40;;;;;;;14.54;93.97;98684.44;131382;1291;22578;-78
2023/10/28 08:44:27;;;;;;;5.10;2.50;;;;;;;15.00;93.26;98683.52;131343;1294;23415;-78
2023/10/28 08:47:31;;;;;;;5.10;1.90;;;;;;;15.33;92.77;98684.69;131275;1292;25275;-79
2023/10/28 08:50:34;;;;;;;3.40;2.00;;;;;;;15.47;89.93;98683.98;130973;1297;22546;-79
2023/10/28 08:53:36;;;;;;;4.70;2.60;;;;;;;15.45;89.20;98694.02;130991;1298;23327;-79
2023/10/28 08:56:41;;;;;;;2.90;1.90;;;;;;;15.53;88.98;98695.33;131215;1291;22592;-79
2023/10/28 08:59:42;;;;;;;4.40;2.50;;;;;;;15.62;87.06;98694.66;131343;1291;23300;-79
2023/10/28 09:02:46;;;;;;;;;;;;;;;15.33;85.55;98698.51;131462;1289;22595;-79
2023/10/28 09:05:50;;;;;;;7.20;2.00;;;;;;;14.99;86.26;98704.49;131402;1292;22619;-80
2023/10/28 09:08:50;;;;;;;6.20;2.10;;;;;;;14.76;85.82;98711.54;131479;1297;25420;-79
2023/10/28 09:11:55;;;;;;;;;;;;;;;14.44;85.57;98710.73;131280;1298;25250;-79
2023/10/28 09:14:56;;;;;;;5.20;2.20;;;;;;;14.22;86.15;98711.91;131336;1288;24240;-79
2023/10/28 09:17:56;;;;;;;;;;;;;;;14.05;85.95;98717.41;131248;1288;25527;-79
2023/10/28 09:20:59;;;;;;;4.20;1.80;;;;;;;13.91;86.13;98717.86;131279;1290;22610;-79
2023/10/28 09:24:02;;;;;;;4.00;1.90;;;;;;;13.78;85.99;98717.21;131503;1297;22701;-80
2023/10/28 09:27:04;;;;;;;2.90;1.80;;;;;;;13.70;86.94;98723.16;131300;1296;22603;-80
2023/10/28 09:30:06;;;;;;;3.80;2.30;;;;;;;13.67;86.90;98722.55;131422;1289;25342;-79
2023/10/28 09:33:07;;;;;;;5.00;2.00;;;;;;;13.60;87.04;98729.36;131382;1298;22613;-79
2023/10/28 09:36:08;;;;;;;4.40;2.00;;;;;;;13.52;86.70;98730.93;131472;1294;23399;-79
2023/10/28 09:39:12;;;;;;;4.20;2.30;;;;;;;13.40;86.71;98732.42;131578;1296;22694;-79
2023/10/28 09:42:15;;;;;;;3.90;1.90;;;;;;;13.32;87.08;98732.05;131734;1297;23296;-80
2023/10/28 09:45:16;;;;;;;6.70;2.10;;;;;;;13.29;87.60;98730.98;131632;1289;22604;-79
2023/10/28 09:48:18;;;;;;;4.20;2.40;;;;;;;13.30;87.39;98733.54;131754;1298;22572;-79
2023/10/28 09:51:22;;;;;;;4.50;2.00;;;;;;;13.28;86.99;98732.61;134139;1297;22575;-79
2023/10/28 09:54:28;;;;;;;2.70;1.70;;;;;;;13.26;86.81;98729.63;132325;1288;25326;-80
2023/10/28 09:57:30;;;;;;;3.10;1.90;;;;;;;13.30;87.30;98731.03;131695;1288;22550;-80
2023/10/28 10:00:34;;;;;;;2.70;1.80;;;;;;;13.39;87.56;98731.38;132295;1298;22946;-80
2023/10/28 10:03:34;;;;;;;3.20;1.60;;;;;;;13.46;87.52;98732.74;131489;1297;23317;-82
2023/10/28 10:06:39;;;;;;;5.60;2.00;;;;;;;13.45;86.85;98738.86;131610;1294;22566;-81
2023/10/28 10:09:43;;;;;;;2.40;2.00;;;;;;;13.48;87.50;98743.55;131413;1298;22610;-79
2023/10/28 10:12:44;;;;;;;3.00;1.90;;;;;;;13.53;87.36;98746.29;131410;1288;25349;-81
2023/10/28 10:15:53;;;;;;;3.80;1.80;;;;;;;13.54;86.91;98742.05;131307;1295;22606;-78
2023/10/28 10:18:58;;;;;;;3.10;1.80;;;;;;;13.49;87.05;98739.40;131373;1295;25366;-80
2023/10/28 10:22:02;;;;;;;5.10;1.70;;;;;;;13.52;87.14;98744.02;131444;1294;22566;-81
2023/10/28 10:25:04;;;;;;;4.70;1.60;;;;;;;13.53;87.10;98743.09;131658;1297;22563;-80
2023/10/28 10:28:19;;;;;;;3.30;1.60;;;;;;;13.54;86.67;98745.91;131703;1297;23336;-82
2023/10/28 10:31:23;;;;;;;3.50;1.80;;;;;;;13.55;86.80;98745.45;131888;1298;24555;-81
2023/10/28 10:34:37;;;;;;;4.50;2.00;;;;;;;13.57;86.55;98745.89;131673;1297;22587;-81
2023/10/28 10:37:37;;;;;;;;;;;;;;;13.60;86.45;98747.90;131666;1288;22682;-80
2023/10/28 10:40:41;;;;;;;2.20;1.60;;;;;;;13.65;86.44;98749.33;131648;1299;23262;-80
2023/10/28 10:43:42;;;;;;;4.80;1.40;;;;;;;13.65;86.30;98751.35;131680;1297;22562;-79
2023/10/28 10:46:42;;;;;;;2.40;1.60;;;;;;;13.60;85.70;98750.81;131675;1298;25212;-80
2023/10/28 10:49:43;;;;;;;3.10;1.60;;;;;;;13.55;86.07;98751.44;131456;1289;22545;-79
2023/10/28 10:52:44;;;;;;;;;;;;;;;13.56;86.14;98755.81;131478;1301;22548;-81
2023/10/28 10:55:45;;;;;;;2.80;1.30;;;;;;;13.53;85.87;98756.79;131704;1289;25360;-80
2023/10/28 10:58:45;;;;;;;;;;;;;;;13.42;84.93;98759.21;131605;1297;23357;-80
2023/10/28 11:01:46;;;;;;;5.10;2.30;;;;;;;13.32;85.22;98769.30;131572;1298;22584;-81
2023/10/28 11:04:47;;;;;;;;;;;;;;;13.27;85.32;98776.93;131587;1289;22587;-80
2023/10/28 11:07:48;;;;;;;2.70;1.60;;;;;;;13.26;85.80;98776.91;131311;1289;23309;-79
2023/10/28 11:10:49;;;;;;;1.90;1.10;;;;;;;13.32;86.00;98779.38;131605;1297;22575;-80
2023/10/28 11:13:49;;;;;;;3.20;1.20;;;;;;;13.37;85.14;98776.35;131512;1295;22617;-81
2023/10/28 11:16:50;;;;;;;1.80;1.20;;;;;;;13.40;85.29;98775.63;131708;1296;23677;-81
2023/10/28 11:19:51;;;;;;;1.30;1.00;;;;;;;13.45;84.79;98770.34;131338;1294;23407;-79
2023/10/28 11:22:51;;;;;;;;;;;;;;;13.47;85.03;98773.73;131607;1297;22578;-81
2023/10/28 11:25:52;;;;;;;4.30;1.30;;;;;;;13.50;84.53;98780.66;131501;1295;23254;-81
2023/10/28 11:28:53;;;;;;;1.40;1.30;;;;;;;13.54;84.74;98776.78;131491;1285;22566;-81
2023/10/28 11:31:55;;;;;;;2.60;0.90;;;;;;;13.60;84.25;98777.87;131627;1288;22605;-84
2023/10/28 11:34:56;;;;;;;1.60;1.20;;;;;;;13.68;84.24;98781.61;131206;1298;22702;-81
2023/10/28 11:37:57;;;;;;;3.10;1.20;;;;;;;13.76;84.18;98782.52;131766;1298;22600;-81
2023/10/28 11:41:07;;;;;;;;;;;;;;;13.83;84.67;98782.66;131685;1296;22537;-82
2023/10/28 11:44:11;;;;;;;2.00;1.10;;;;;;;13.89;84.33;98786.70;131424;1301;22516;-80
2023/10/28 11:47:11;;;;;;;2.80;1.20;;;;;;;13.85;83.37;98786.91;131840;1301;22582;-81
2023/10/28 11:50:12;;;;;;;;;;;;;;;13.81;83.54;98787.89;131575;1297;22745;-81
2023/10/28 11:53:15;;;;;;;2.30;1.00;;;;;;;13.75;82.98;98792.61;131627;1289;25543;-80
2023/10/28 11:56:16;;;;;;;1.10;1.00;;;;;;;13.68;83.07;98792.19;131355;1298;22568;-81
2023/10/28 11:59:16;;;;;;;;;;;;;;;13.64;82.93;98795.19;131176;1295;22677;-80
2023/10/28 12:02:17;;;;;;;1.70;0.80;;;;;;;13.56;82.72;98800.91;131276;1298;22650;-82
2023/10/28 12:05:17;;;;;;;1.90;1.70;;;;;;;13.50;82.99;98804.28;131223;1289;22680;-80
2023/10/28 12:08:18;;;;;;;;;;;;;;;13.44;83.16;98807.85;131246;1295;23059;-82
2023/10/28 12:11:18;;;;;;;2.40;1.40;;;;;;;13.40;82.96;98805.30;131244;1292;22597;-81
2023/10/28 12:14:19;;;;;;;3.50;1.40;;;;;;;13.35;83.19;98808.67;131299;1298;24298;-82
2023/10/28 12:17:21;;;;;;;;;;;;;;;13.33;83.42;98807.27;131179;1291;22559;-80
2023/10/28 12:20:22;;;;;;;1.50;1.20;;;;;;;13.30;83.49;98808.14;131185;1290;22561;-80
2023/10/28 12:23:23;;;;;;;3.00;1.50;;;;;;;13.28;83.68;98807.31;131174;1288;22610;-80
2023/10/28 12:26:23;;;;;;;1.90;1.20;;;;;;;13.25;83.83;98809.65;131210;1298;22724;-80
2023/10/28 12:29:24;;;;;;;3.20;1.40;;;;;;;13.22;83.93;98812.20;131179;1298;22822;-79
2023/10/28 12:32:24;;;;;;;1.10;1.00;;;;;;;13.19;83.99;98814.77;131282;1294;23331;-80
2023/10/28 12:35:25;;;;;;;3.30;0.90;;;;;;;13.15;84.18;98818.31;131220;1292;22559;-81
2023/10/28 12:38:26;;;;;;;1.40;1.10;;;;;;;13.13;84.27;98819.77;131266;1295;23410;-81
2023/10/28 12:41:26;;;;;;;1.00;0.90;;;;;;;13.09;84.44;98818.98;131163;1297;22689;-79
2023/10/28 12:44:27;;;;;;;2.10;1.30;;;;;;;13.06;84.50;98816.25;131446;1296;22571;-81
2023/10/28 12:47:27;;;;;;;2.00;1.30;;;;;;;13.02;84.60;98817.71;131386;1292;23468;-80
2023/10/28 12:50:28;;;;;;;2.70;1.10;;;;;;;12.98;84.94;98822.20;131489;1298;23449;-81
2023/10/28 12:53:29;;;;;;;1.30;1.20;;;;;;;12.92;84.98;98827.42;131360;1298;25348;-80
2023/10/28 12:56:31;;;;;;;5.10;1.70;;;;;;;12.88;85.30;98830.36;131456;1297;22597;-80
2023/10/28 12:59:31;;;;;;;1.40;1.30;;;;;;;12.86;85.55;98830.20;131493;1298;22629;-79
2023/10/28 13:02:32;;;;;;;2.20;1.30;;;;;;;12.81;85.53;98831.86;131547;1292;22636;-80
2023/10/28 13:05:33;;;;;;;2.90;1.40;;;;;;;12.75;85.61;98835.25;131539;1304;22610;-80
2023/10/28 13:08:33;;;;;;;1.20;1.00;;;;;;;12.72;85.84;98834.32;131523;1297;22588;-80
2023/10/28 13:11:34;;;;;;;1.50;1.40;;;;;;;12.71;86.12;98842.27;131367;1298;25001;-81
2023/10/28 13:14:36;;;;;;;2.70;1.60;;;;;;;12.69;86.32;98839.16;131275;1297;22782;-79
2023/10/28 13:17:39;;;;;;;2.50;1.60;;;;;;;12.65;86.60;98840.80;131297;1298;25378;-80
2023/10/28 13:20:40;;;;;;;3.10;1.50;;;;;;;12.63;86.76;98838.50;131238;1298;24287;-77
2023/10/28 13:23:41;;;;;;;4.80;1.90;;;;;;;12.61;86.81;98847.40;131314;1289;22611;-82
2023/10/28 13:26:42;;;;;;;3.50;1.70;;;;;;;12.55;86.99;98855.71;131242;1297;25377;-80
2023/10/28 13:29:44;;;;;;;3.40;2.20;;;;;;;12.43;87.04;98870.90;131156;1296;25369;-80
2023/10/28 13:32:48;;;;;;;6.90;2.40;;;;;;;12.24;87.29;98875.03;131429;1298;23234;-80
2023/10/28 13:35:49;;;;;;;4.40;1.60;;;;;;;11.96;88.15;98869.27;131433;1298;22576;-80
2023/10/28 13:38:50;;;;;;;2.50;1.80;;;;;;;11.78;88.54;98868.06;131230;1291;22637;-81
2023/10/28 13:41:51;;;;;;;;;;;;;;;11.76;89.14;98871.83;131307;1298;22605;-81
2023/10/28 13:44:53;;;;;;;3.30;2.20;;;;;;;11.72;89.57;98874.36;131217;1292;22566;-81
2023/10/28 13:47:54;;;;;;;3.60;2.40;;;;;;;11.71;89.86;98875.71;131876;1298;22635;-82
2023/10/28 13:50:55;;;;;;;4.10;2.30;;;;;;;11.73;90.24;98882.41;130943;1292;23270;-82
2023/10/28 13:53:55;;;;;;;3.50;1.80;;;;;;;11.72;90.35;98879.80;131163;1288;25532;-80
2023/10/28 13:56:56;;;;;;;3.00;2.20;;;;;;;11.70;90.56;98885.52;131003;1294;24290;-80
2023/10/28 13:59:56;;;;;;;2.50;2.10;;;;;;;11.65;90.84;98886.66;131194;1297;24011;-81
2023/10/28 14:02:57;;;;;;;2.70;2.40;;;;;;;11.61;91.02;98889.97;131300;1298;24327;-80
2023/10/28 14:05:57;;;;;;;3.30;2.20;;;;;;;11.56;91.41;98892.38;131236;1298;22583;-82